createdAt,value
2019-03-29T00:00:33.917Z,7.37
2019-03-29T00:03:03.608Z,7.20
2019-03-29T00:05:32.957Z,8.00
2019-03-29T00:08:02.367Z,7.23
2019-03-29T00:10:31.739Z,7.43
2019-03-29T00:13:01.114Z,7.50
2019-03-29T00:15:30.567Z,7.00
2019-03-29T00:18:00.187Z,6.63
2019-03-29T00:20:29.539Z,7.10
2019-03-29T00:22:58.879Z,8.17
2019-03-29T00:25:28.360Z,7.50
2019-03-29T00:27:57.804Z,7.20
2019-03-29T00:30:27.266Z,7.70
2019-03-29T00:32:57.875Z,7.23
2019-03-29T00:35:27.502Z,6.90
2019-03-29T00:37:57.290Z,7.23
2019-03-29T00:40:26.706Z,7.03
2019-03-29T00:42:56.144Z,7.67
2019-03-29T00:45:25.570Z,7.40
2019-03-29T00:47:55.392Z,7.70
2019-03-29T00:50:25.425Z,7.83
2019-03-29T00:52:54.829Z,7.93
2019-03-29T00:55:24.250Z,6.90
2019-03-29T00:57:53.852Z,7.93
2019-03-29T01:00:23.414Z,7.87
2019-03-29T01:02:52.795Z,7.37
2019-03-29T01:16:03.869Z,8.17
2019-03-29T01:18:33.313Z,7.00
2019-03-29T01:21:02.772Z,7.90
2019-03-29T01:23:32.149Z,7.57
2019-03-29T01:26:01.549Z,7.20
2019-03-29T01:28:30.985Z,7.30
2019-03-29T01:31:00.451Z,6.70
2019-03-29T01:33:29.970Z,7.40
2019-03-29T01:35:59.357Z,6.93
2019-03-29T01:38:29.110Z,7.63
2019-03-29T01:40:59.371Z,7.23
2019-03-29T01:43:28.761Z,7.00
2019-03-29T01:46:00.282Z,7.00
2019-03-29T01:48:29.755Z,7.00
2019-03-29T01:50:59.532Z,7.27
2019-03-29T01:53:29.034Z,7.00
2019-03-29T01:55:58.359Z,7.10
2019-03-29T01:58:27.726Z,7.20
2019-03-29T02:00:57.073Z,6.37
2019-03-29T02:03:26.423Z,7.10
2019-03-29T02:05:55.894Z,7.23
2019-03-29T02:08:35.744Z,6.40
2019-03-29T02:10:56.483Z,6.43
2019-03-29T02:13:26.116Z,7.30
2019-03-29T02:15:55.678Z,6.57
2019-03-29T02:18:25.056Z,6.57
2019-03-29T02:20:54.399Z,7.00
2019-03-29T02:23:23.963Z,6.03
2019-03-29T02:25:53.661Z,7.30
2019-03-29T02:28:23.103Z,6.70
2019-03-29T02:30:52.765Z,7.07
2019-03-29T02:33:22.122Z,6.93
2019-03-29T02:35:51.888Z,6.13
2019-03-29T02:38:21.330Z,6.43
2019-03-29T02:40:51.026Z,7.13
2019-03-29T02:43:20.847Z,7.50
2019-03-29T02:45:50.175Z,6.90
2019-03-29T02:48:19.530Z,6.57
2019-03-29T02:50:48.885Z,7.30
2019-03-29T02:53:18.351Z,7.33
2019-03-29T02:55:48.054Z,6.50
2019-03-29T02:58:23.833Z,7.80
2019-03-29T03:00:53.282Z,6.97
2019-03-29T03:03:22.893Z,6.60
2019-03-29T03:05:52.250Z,7.00
2019-03-29T03:08:21.607Z,7.00
2019-03-29T03:10:51.019Z,6.67
2019-03-29T03:13:20.382Z,7.10
2019-03-29T03:15:49.878Z,7.27
2019-03-29T03:18:19.288Z,6.93
2019-03-29T03:20:48.781Z,6.80
2019-03-29T03:23:18.148Z,6.27
2019-03-29T03:25:47.675Z,7.33
2019-03-29T03:28:17.144Z,7.53
2019-03-29T03:30:46.578Z,6.90
2019-03-29T03:33:15.974Z,6.40
2019-03-29T03:35:45.402Z,7.40
2019-03-29T03:38:14.985Z,6.80
2019-03-29T03:40:44.444Z,6.40
2019-03-29T03:43:13.876Z,6.03
2019-03-29T03:45:43.262Z,6.70
2019-03-29T03:48:12.774Z,6.37
2019-03-29T03:50:43.627Z,6.37
2019-03-29T03:53:13.368Z,6.97
2019-03-29T03:55:45.682Z,6.43
2019-03-29T03:58:16.671Z,6.33
2019-03-29T04:00:59.209Z,5.83
2019-03-29T04:03:29.056Z,6.67
2019-03-29T04:05:58.673Z,6.50
2019-03-29T04:08:28.556Z,6.53
2019-03-29T04:10:57.976Z,6.07
2019-03-29T04:13:27.801Z,6.70
2019-03-29T04:15:57.398Z,6.27
2019-03-29T04:18:26.900Z,6.10
2019-03-29T04:20:56.358Z,6.00
2019-03-29T04:23:25.710Z,6.33
2019-03-29T04:25:55.201Z,6.47
2019-03-29T04:28:24.595Z,6.53
2019-03-29T04:30:54.031Z,6.30
2019-03-29T04:33:23.442Z,6.80
2019-03-29T04:35:52.871Z,6.87
2019-03-29T04:38:22.236Z,6.80
2019-03-29T04:40:51.678Z,7.23
2019-03-29T04:43:21.253Z,7.27
2019-03-29T04:45:50.661Z,7.47
2019-03-29T04:48:20.136Z,8.07
2019-03-29T04:50:49.550Z,7.20
2019-03-29T04:53:18.997Z,6.87
2019-03-29T04:55:48.366Z,8.30
2019-03-29T04:58:17.761Z,7.63
2019-03-29T05:00:47.241Z,8.97
2019-03-29T05:03:16.684Z,9.90
2019-03-29T05:05:46.203Z,12.27
2019-03-29T05:08:15.558Z,11.77
2019-03-29T05:10:44.931Z,13.20
2019-03-29T05:13:14.738Z,13.40
2019-03-29T05:15:44.630Z,12.73
2019-03-29T05:18:13.975Z,12.43
2019-03-29T05:20:43.686Z,12.10
2019-03-29T05:23:13.223Z,12.13
2019-03-29T05:25:42.635Z,12.07
2019-03-29T05:28:11.976Z,11.33
2019-03-29T05:30:41.707Z,10.87
2019-03-29T05:33:11.082Z,10.47
2019-03-29T05:35:40.752Z,11.80
2019-03-29T05:38:10.198Z,10.90
2019-03-29T05:40:39.561Z,10.77
2019-03-29T05:43:09.051Z,11.60
2019-03-29T05:45:39.590Z,11.83
2019-03-29T05:48:08.984Z,11.90
2019-03-29T05:50:39.272Z,10.80
2019-03-29T05:53:09.701Z,11.30
2019-03-29T05:55:39.111Z,11.23
2019-03-29T05:58:08.636Z,11.90
2019-03-29T06:00:38.065Z,11.77
2019-03-29T06:03:10.833Z,12.37
2019-03-29T06:05:40.471Z,11.53
2019-03-29T06:08:09.914Z,11.13
2019-03-29T06:10:49.029Z,11.03
2019-03-29T06:13:10.463Z,10.70
2019-03-29T06:15:39.828Z,11.80
2019-03-29T06:18:09.201Z,10.27
2019-03-29T06:20:38.534Z,11.57
2019-03-29T06:23:08.125Z,11.13
2019-03-29T06:25:37.538Z,11.63
2019-03-29T06:28:06.961Z,11.77
2019-03-29T06:30:36.461Z,11.37
2019-03-29T06:33:06.009Z,11.33
2019-03-29T06:35:38.524Z,10.63
2019-03-29T06:38:13.259Z,11.20
2019-03-29T06:40:42.646Z,10.97
2019-03-29T06:43:12.051Z,11.23
2019-03-29T06:45:47.977Z,11.47
2019-03-29T06:48:12.606Z,11.77
2019-03-29T06:50:42.262Z,11.63
2019-03-29T06:53:11.722Z,11.43
2019-03-29T06:55:41.154Z,12.50
2019-03-29T06:58:19.091Z,11.97
2019-03-29T07:07:46.671Z,14.90
2019-03-29T07:10:16.042Z,15.03
2019-03-29T07:12:45.488Z,14.97
2019-03-29T07:15:15.078Z,14.30
2019-03-29T07:17:44.675Z,14.77
2019-03-29T07:20:14.248Z,15.03
2019-03-29T07:22:43.603Z,14.97
2019-03-29T07:25:13.150Z,14.00
2019-03-29T07:27:46.680Z,15.70
2019-03-29T07:30:14.396Z,14.87
2019-03-29T07:32:43.862Z,14.60
2019-03-29T07:35:13.441Z,15.13
2019-03-29T07:37:43.027Z,15.57
2019-03-29T07:40:12.860Z,15.20
2019-03-29T07:42:42.210Z,14.90
2019-03-29T07:45:11.810Z,14.13
2019-03-29T07:47:42.013Z,14.40
2019-03-29T07:50:11.750Z,13.80
2019-03-29T07:52:41.222Z,14.33
2019-03-29T07:55:12.160Z,14.07
2019-03-29T07:57:41.814Z,15.10
2019-03-29T08:00:12.527Z,15.03
2019-03-29T08:02:42.235Z,15.23
2019-03-29T08:05:11.735Z,14.67
2019-03-29T08:07:41.279Z,14.70
2019-03-29T08:10:24.094Z,14.07
2019-03-29T08:12:42.099Z,13.40
2019-03-29T08:15:12.215Z,14.50
2019-03-29T08:17:41.642Z,14.20
2019-03-29T08:20:38.038Z,13.53
2019-03-29T08:22:42.568Z,14.43
2019-03-29T08:25:12.207Z,13.80
2019-03-29T08:27:42.721Z,12.67
2019-03-29T08:30:12.563Z,12.13
2019-03-29T08:32:42.080Z,11.90
2019-03-29T08:35:11.646Z,12.67
2019-03-29T08:37:43.150Z,12.50
2019-03-29T08:40:13.163Z,11.43
2019-03-29T08:42:42.576Z,11.53
2019-03-29T08:45:12.188Z,12.57
2019-03-29T08:47:41.863Z,11.67
2019-03-29T08:50:11.464Z,12.67
2019-03-29T08:52:40.889Z,11.13
2019-03-29T08:55:10.484Z,12.07
2019-03-29T08:57:40.168Z,11.87
2019-03-29T09:00:09.862Z,12.00
2019-03-29T09:02:39.441Z,11.53
2019-03-29T09:05:09.638Z,12.03
2019-03-29T09:07:44.862Z,11.90
2019-03-29T09:10:23.658Z,11.53
2019-03-29T09:12:53.098Z,12.80
2019-03-29T09:15:22.926Z,12.43
2019-03-29T09:17:52.440Z,12.77
2019-03-29T09:20:24.121Z,12.17
2019-03-29T09:22:53.665Z,11.83
2019-03-29T09:25:23.545Z,12.30
2019-03-29T09:27:53.204Z,12.73
2019-03-29T09:30:28.811Z,12.10
2019-03-29T09:32:58.665Z,12.90
2019-03-29T09:35:28.359Z,13.50
2019-03-29T09:37:57.819Z,13.07
2019-03-29T09:40:27.359Z,13.00
2019-03-29T09:43:07.123Z,12.67
2019-03-29T09:45:29.339Z,12.43
2019-03-29T09:47:58.788Z,13.63
2019-03-29T09:50:28.376Z,13.03
2019-03-29T09:53:01.188Z,13.80
2019-03-29T09:55:30.136Z,13.50
2019-03-29T09:57:59.644Z,13.13
2019-03-29T10:00:29.426Z,13.67
2019-03-29T10:02:58.974Z,14.13
2019-03-29T10:05:31.171Z,14.07
2019-03-29T10:07:59.569Z,13.37
2019-03-29T10:10:28.924Z,15.57
2019-03-29T10:12:58.531Z,15.57
2019-03-29T10:15:28.242Z,15.07
2019-03-29T10:17:57.674Z,14.87
2019-03-29T10:20:27.472Z,15.77
2019-03-29T10:22:56.785Z,15.90
2019-03-29T10:25:26.162Z,15.03
2019-03-29T10:27:55.600Z,15.07
2019-03-29T10:30:46.267Z,16.93
2019-03-29T10:33:14.091Z,16.00
2019-03-29T10:35:52.257Z,16.60
2019-03-29T10:38:17.957Z,16.97
2019-03-29T10:40:46.327Z,16.53
2019-03-29T10:43:15.876Z,16.33
2019-03-29T10:45:45.283Z,17.70
2019-03-29T10:48:14.782Z,17.13
2019-03-29T10:50:44.158Z,17.33
2019-03-29T10:53:13.821Z,17.00
2019-03-29T10:55:43.548Z,16.30
2019-03-29T10:58:13.284Z,18.97
2019-03-29T11:00:42.807Z,17.77
2019-03-29T11:03:12.384Z,18.13
2019-03-29T11:05:41.854Z,18.73
2019-03-29T11:08:12.364Z,18.70
2019-03-29T11:10:42.097Z,17.33
2019-03-29T11:13:13.721Z,20.20
2019-03-29T11:15:42.803Z,18.67
2019-03-29T11:18:12.345Z,18.73
2019-03-29T11:20:41.924Z,18.43
2019-03-29T11:23:11.886Z,19.93
2019-03-29T11:25:41.325Z,17.90
2019-03-29T11:28:10.744Z,19.20
2019-03-29T11:30:42.771Z,20.13
2019-03-29T11:33:11.389Z,18.60
2019-03-29T11:35:40.817Z,19.63
2019-03-29T11:38:10.295Z,19.43
2019-03-29T11:40:39.989Z,18.07
2019-03-29T11:43:09.526Z,19.90
2019-03-29T11:45:39.118Z,18.87
2019-03-29T11:48:09.603Z,20.47
2019-03-29T11:50:39.376Z,19.70
2019-03-29T11:53:08.912Z,19.80
2019-03-29T11:55:38.281Z,19.67
2019-03-29T11:58:08.231Z,20.07
2019-03-29T12:00:39.132Z,19.13
2019-03-29T12:03:09.371Z,19.20
2019-03-29T12:05:39.401Z,18.90
2019-03-29T12:08:09.291Z,20.37
2019-03-29T12:10:38.721Z,19.13
2019-03-29T12:13:10.026Z,19.23
2019-03-29T12:15:39.695Z,18.57
2019-03-29T12:18:09.326Z,19.00
2019-03-29T12:20:38.827Z,19.33
2019-03-29T12:23:08.230Z,19.73
2019-03-29T12:25:37.601Z,19.10
2019-03-29T12:28:07.399Z,19.37
2019-03-29T12:30:37.018Z,20.20
2019-03-29T12:33:06.468Z,19.57
2019-03-29T12:35:35.966Z,20.17
2019-03-29T12:38:05.994Z,19.97
2019-03-29T12:41:23.572Z,19.47
2019-03-29T12:43:55.743Z,19.07
2019-03-29T12:46:24.579Z,19.67
2019-03-29T12:48:54.049Z,20.13
2019-03-29T12:51:23.511Z,21.03
2019-03-29T12:53:53.015Z,19.97
2019-03-29T12:56:22.491Z,18.67
2019-03-29T12:58:52.381Z,19.27
2019-03-29T13:01:22.148Z,18.53
2019-03-29T13:03:51.543Z,20.20
2019-03-29T13:06:21.002Z,18.80
2019-03-29T13:08:50.928Z,16.87
2019-03-29T13:11:20.331Z,18.70
2019-03-29T13:13:51.366Z,18.23
2019-03-29T13:16:20.916Z,19.73
2019-03-29T13:18:53.613Z,20.60
2019-03-29T13:21:21.535Z,19.80
2019-03-29T13:23:51.023Z,20.17
2019-03-29T13:26:20.685Z,21.43
2019-03-29T13:28:50.055Z,19.17
2019-03-29T13:31:19.598Z,20.13
2019-03-29T13:33:50.144Z,21.23
2019-03-29T13:36:19.658Z,20.53
2019-03-29T13:38:49.144Z,20.47
2019-03-29T13:41:19.045Z,21.03
2019-03-29T13:43:48.505Z,20.47
2019-03-29T13:46:18.058Z,20.80
2019-03-29T13:48:48.684Z,21.73
2019-03-29T13:51:18.110Z,20.80
2019-03-29T13:53:58.830Z,20.43
2019-03-29T13:56:38.837Z,21.03
2019-03-29T13:59:08.419Z,21.17
2019-03-29T14:05:07.251Z,21.47
2019-03-29T14:07:36.790Z,19.33
2019-03-29T14:10:07.464Z,23.47
2019-03-29T14:12:37.135Z,21.17
2019-03-29T14:15:09.352Z,21.83
2019-03-29T14:17:39.041Z,22.07
2019-03-29T14:20:10.488Z,20.73
2019-03-29T14:22:44.838Z,21.27
2019-03-29T14:25:17.602Z,21.77
2019-03-29T14:27:51.759Z,20.60
2019-03-29T14:30:22.323Z,20.67
2019-03-29T14:32:52.034Z,19.67
2019-03-29T14:35:24.490Z,21.07
2019-03-29T14:37:54.621Z,20.20
2019-03-29T14:40:26.730Z,18.60
2019-03-29T14:42:56.446Z,18.67
2019-03-29T14:45:27.379Z,18.90
2019-03-29T14:47:56.733Z,19.77
2019-03-29T14:50:26.292Z,20.10
2019-03-29T14:52:56.323Z,19.60
2019-03-29T14:55:25.678Z,19.27
2019-03-29T14:57:55.104Z,19.13
2019-03-29T15:00:50.522Z,21.57
2019-03-29T15:03:20.732Z,20.37
2019-03-29T15:05:50.343Z,20.20
2019-03-29T15:08:20.522Z,18.87
2019-03-29T15:10:49.957Z,17.55
2019-03-29T15:13:19.529Z,18.98
2019-03-29T15:15:48.993Z,18.70
2019-03-29T15:18:18.361Z,19.37
2019-03-29T15:20:53.856Z,18.10
2019-03-29T15:23:19.039Z,18.52
2019-03-29T15:25:48.393Z,17.50
2019-03-29T15:28:18.949Z,17.05
2019-03-29T15:30:48.453Z,18.62
2019-03-29T15:33:17.912Z,18.65
2019-03-29T15:35:47.309Z,18.67
2019-03-29T15:38:16.901Z,19.77
2019-03-29T15:40:46.771Z,19.57
2019-03-29T15:43:16.181Z,17.57
2019-03-29T15:45:45.701Z,15.88
2019-03-29T15:48:15.246Z,16.12
2019-03-29T15:50:44.783Z,17.05
2019-03-29T15:59:31.032Z,17.60
2019-03-29T16:02:00.583Z,16.90
2019-03-29T16:04:29.977Z,17.75
2019-03-29T16:06:59.791Z,17.02
2019-03-29T16:09:29.267Z,18.40
2019-03-29T16:11:58.728Z,18.23
2019-03-29T16:14:31.597Z,20.12
2019-03-29T16:22:58.222Z,18.12
2019-03-29T16:26:06.848Z,17.45
2019-03-29T16:31:58.765Z,17.82
2019-03-29T16:34:28.259Z,18.52
2019-03-29T16:36:57.600Z,17.75
2019-03-29T16:39:26.972Z,17.90
2019-03-29T16:41:56.491Z,18.02
2019-03-29T16:44:25.857Z,18.23
2019-03-29T16:46:55.352Z,19.12
2019-03-29T16:49:24.758Z,20.17
2019-03-29T16:51:54.350Z,19.80
2019-03-29T16:54:23.744Z,19.42
2019-03-29T16:56:53.295Z,18.82
2019-03-29T16:59:22.983Z,19.43
2019-03-29T17:01:52.613Z,18.73
2019-03-29T17:04:21.985Z,18.13
2019-03-29T17:06:51.495Z,18.00
2019-03-29T17:09:20.897Z,18.10
2019-03-29T17:11:50.615Z,18.33
2019-03-29T17:14:20.500Z,18.83
2019-03-29T17:27:16.570Z,19.23
2019-03-29T17:29:46.102Z,17.93
2019-03-29T17:32:17.328Z,18.03
2019-03-29T17:34:46.679Z,18.07
2019-03-29T17:37:16.133Z,17.03
2019-03-29T17:39:45.901Z,17.47
2019-03-29T17:42:15.254Z,16.67
2019-03-29T17:44:46.195Z,17.47
2019-03-29T17:47:15.613Z,17.67
2019-03-29T17:49:44.967Z,18.43
2019-03-29T17:52:14.320Z,18.80
2019-03-29T17:54:43.716Z,18.03
2019-03-29T17:57:13.180Z,18.83
2019-03-29T17:59:42.533Z,18.73
2019-03-29T18:02:11.971Z,18.30
2019-03-29T18:04:41.328Z,16.73
2019-03-29T18:07:10.776Z,16.83
2019-03-29T18:09:40.266Z,16.80
2019-03-29T18:12:11.363Z,17.47
2019-03-29T18:14:40.697Z,16.77
2019-03-29T18:17:10.143Z,18.53
2019-03-29T18:19:39.513Z,16.77
2019-03-29T18:22:08.998Z,16.10
2019-03-29T18:24:38.632Z,17.13
2019-03-29T18:27:08.044Z,17.87
2019-03-29T18:29:37.420Z,17.70
2019-03-29T18:32:06.991Z,17.47
2019-03-29T18:34:38.095Z,17.77
2019-03-29T18:37:07.808Z,17.17
2019-03-29T18:39:38.465Z,19.43
2019-03-29T18:42:07.827Z,17.37
2019-03-29T18:44:37.301Z,17.07
2019-03-29T18:47:07.603Z,18.03
2019-03-29T18:49:36.964Z,17.97
2019-03-29T18:52:06.416Z,17.63
2019-03-29T18:54:35.843Z,17.43
2019-03-29T18:57:05.387Z,17.70
2019-03-29T18:59:34.737Z,17.30
2019-03-29T19:02:04.320Z,18.07
2019-03-29T19:04:33.692Z,18.47
2019-03-29T19:07:03.143Z,19.00
2019-03-29T19:09:32.614Z,17.43
2019-03-29T19:12:02.490Z,17.77
2019-03-29T19:14:31.932Z,18.30
2019-03-29T19:17:01.316Z,18.10
2019-03-29T19:19:31.178Z,17.47
2019-03-29T19:22:00.659Z,16.80
2019-03-29T19:24:30.048Z,17.03
2019-03-29T19:26:59.585Z,18.00
2019-03-29T19:29:29.035Z,18.37
2019-03-29T19:31:58.422Z,17.07
2019-03-29T19:34:28.074Z,17.20
2019-03-29T19:36:57.441Z,18.13
2019-03-29T19:39:26.782Z,18.00
2019-03-29T19:41:56.195Z,18.67
2019-03-29T19:44:25.588Z,17.00
2019-03-29T19:46:55.015Z,17.37
2019-03-29T19:49:24.444Z,18.77
2019-03-29T19:51:53.867Z,18.57
2019-03-29T19:54:23.536Z,19.20
2019-03-29T19:56:53.080Z,19.33
2019-03-29T19:59:22.583Z,18.10
2019-03-29T20:01:52.067Z,18.93
2019-03-29T20:04:21.499Z,18.80
2019-03-29T20:06:50.878Z,19.37
2019-03-29T20:09:20.358Z,20.20
2019-03-29T20:11:53.208Z,22.82
2019-03-29T20:14:23.548Z,20.93
2019-03-29T20:16:55.340Z,19.43
2019-03-29T20:19:25.011Z,21.50
2019-03-29T20:21:54.388Z,21.10
2019-03-29T20:24:24.870Z,20.13
2019-03-29T20:26:54.351Z,19.03
2019-03-29T20:29:23.957Z,19.53
2019-03-29T20:31:53.409Z,19.80
2019-03-29T20:34:23.011Z,19.80
2019-03-29T20:36:56.684Z,20.27
2019-03-29T20:39:27.421Z,20.40
2019-03-29T20:41:56.855Z,20.20
2019-03-29T20:44:26.994Z,20.67
2019-03-29T20:46:57.642Z,22.03
2019-03-29T20:49:27.038Z,20.93
2019-03-29T20:51:56.573Z,20.27
2019-03-29T20:54:26.118Z,19.47
2019-03-29T20:56:55.530Z,19.63
2019-03-29T20:59:30.511Z,19.57
2019-03-29T21:02:00.121Z,18.67
2019-03-29T21:04:29.546Z,18.87
2019-03-29T21:06:59.109Z,19.07
2019-03-29T21:09:28.725Z,19.53
2019-03-29T21:11:58.247Z,18.17
2019-03-29T21:14:27.685Z,17.67
2019-03-29T21:16:57.004Z,18.77
2019-03-29T21:19:28.405Z,18.13
2019-03-29T21:21:57.834Z,19.23
2019-03-29T21:24:27.312Z,17.53
2019-03-29T21:26:56.789Z,17.83
2019-03-29T21:29:26.394Z,18.57
2019-03-29T21:31:56.277Z,19.03
2019-03-29T21:34:25.830Z,18.57
2019-03-29T21:36:55.232Z,18.13
2019-03-29T21:39:24.707Z,17.67
2019-03-29T21:41:54.921Z,17.83
2019-03-29T21:44:24.458Z,18.87
2019-03-29T21:55:40.955Z,18.13
2019-03-29T21:58:10.986Z,17.80
2019-03-29T22:00:40.335Z,19.47
2019-03-29T22:03:09.703Z,19.20
2019-03-29T22:05:39.170Z,19.53
2019-03-29T22:08:11.914Z,19.20
2019-03-29T22:10:41.439Z,18.87
2019-03-29T22:13:10.916Z,18.33
2019-03-29T22:15:40.468Z,18.87
2019-03-29T22:18:10.086Z,19.70
2019-03-29T22:20:39.431Z,19.17
2019-03-29T22:23:08.864Z,19.63
2019-03-29T22:25:38.397Z,19.27
2019-03-29T22:28:11.126Z,19.37
2019-03-29T22:30:41.993Z,19.83
2019-03-29T22:33:12.214Z,20.27
2019-03-29T22:35:41.821Z,19.10
2019-03-29T22:38:11.135Z,17.57
2019-03-29T22:40:40.848Z,18.80
2019-03-29T22:43:10.840Z,19.03
2019-03-29T22:45:40.397Z,20.30
2019-03-29T22:48:09.852Z,19.23
2019-03-29T22:50:39.316Z,18.87
2019-03-29T22:55:43.749Z,18.87
2019-03-29T22:58:20.578Z,18.43
2019-03-29T23:00:55.935Z,17.60
2019-03-29T23:03:26.630Z,17.93
2019-03-29T23:05:56.392Z,18.43
2019-03-29T23:08:25.889Z,18.83
2019-03-29T23:10:56.628Z,19.37
2019-03-29T23:13:28.914Z,19.27
2019-03-29T23:15:58.806Z,19.23
2019-03-29T23:18:29.005Z,18.83
2019-03-29T23:23:34.338Z,19.13
2019-03-29T23:26:03.685Z,19.10
2019-03-29T23:28:33.041Z,18.43
2019-03-29T23:31:05.486Z,19.93
2019-03-29T23:33:33.563Z,18.07
2019-03-29T23:36:02.886Z,19.77
2019-03-29T23:38:32.329Z,20.23
2019-03-29T23:41:01.691Z,20.30
2019-03-29T23:43:31.164Z,19.20
2019-03-29T23:46:00.833Z,19.83
2019-03-29T23:48:30.527Z,19.70
2019-03-29T23:51:00.413Z,20.50
2019-03-29T23:53:29.766Z,20.13
2019-03-29T23:55:59.132Z,19.97
2019-03-29T23:58:28.538Z,19.90
